createdAt,value
2018-07-17T00:02:10.399Z,94444.00
2018-07-17T00:04:39.196Z,94445.59
2018-07-17T00:07:08.017Z,94446.39
2018-07-17T00:09:36.845Z,94450.89
2018-07-17T00:12:05.766Z,94453.02
2018-07-17T00:14:34.592Z,94446.94
2018-07-17T00:17:03.560Z,94448.85
2018-07-17T00:19:32.347Z,94451.83
2018-07-17T00:22:01.471Z,94464.95
2018-07-17T00:24:30.335Z,94457.58
2018-07-17T00:26:59.230Z,94458.13
2018-07-17T00:29:28.085Z,94441.89
2018-07-17T00:31:56.893Z,94437.06
2018-07-17T00:34:25.693Z,94433.02
2018-07-17T00:36:54.480Z,94425.02
2018-07-17T00:39:23.273Z,94429.06
2018-07-17T00:41:52.099Z,94438.93
2018-07-17T00:44:20.954Z,94444.80
2018-07-17T00:46:49.749Z,94447.99
2018-07-17T00:49:18.558Z,94448.00
2018-07-17T00:51:47.309Z,94445.33
2018-07-17T00:54:16.154Z,94449.86
2018-07-17T00:56:44.946Z,94446.66
2018-07-17T00:59:13.753Z,94441.33
2018-07-17T01:01:47.610Z,94445.06
2018-07-17T01:04:21.608Z,94449.29
2018-07-17T01:06:55.515Z,94441.29
2018-07-17T01:09:29.627Z,94442.89
2018-07-17T01:12:03.594Z,94446.62
2018-07-17T01:14:37.585Z,94446.92
2018-07-17T01:17:06.434Z,94438.36
2018-07-17T01:19:35.185Z,94438.92
2018-07-17T01:22:04.017Z,94439.98
2018-07-17T01:24:32.805Z,94439.72
2018-07-17T01:27:01.552Z,94438.13
2018-07-17T01:29:30.366Z,94431.23
2018-07-17T01:31:59.118Z,94433.10
2018-07-17T01:34:27.926Z,94428.80
2018-07-17T01:36:59.669Z,94416.27
2018-07-17T01:39:28.453Z,94424.25
2018-07-17T01:41:57.309Z,94426.92
2018-07-17T01:44:26.083Z,94418.66
2018-07-17T01:46:59.416Z,94414.94
2018-07-17T01:49:28.246Z,94402.40
2018-07-17T01:51:57.046Z,94399.96
2018-07-17T01:54:25.826Z,94393.84
2018-07-17T01:56:54.608Z,94392.50
2018-07-17T01:59:23.400Z,94398.41
2018-07-17T02:01:52.194Z,94393.60
2018-07-17T02:04:20.990Z,94393.06
2018-07-17T02:06:49.793Z,94393.84
2018-07-17T02:09:18.860Z,94397.88
2018-07-17T02:11:47.610Z,94392.77
2018-07-17T02:14:16.333Z,94378.94
2018-07-17T02:16:45.133Z,94379.73
2018-07-17T02:19:13.945Z,94383.48
2018-07-17T02:21:42.706Z,94382.95
2018-07-17T02:24:11.462Z,94382.95
2018-07-17T02:26:40.270Z,94385.34
2018-07-17T02:29:09.048Z,94392.77
2018-07-17T02:31:37.869Z,94392.26
2018-07-17T02:34:06.859Z,94386.13
2018-07-17T02:36:35.652Z,94389.31
2018-07-17T02:39:04.633Z,94388.50
2018-07-17T02:41:33.402Z,94382.41
2018-07-17T02:44:02.166Z,94385.08
2018-07-17T02:46:30.923Z,94377.40
2018-07-17T02:48:59.674Z,94382.50
2018-07-17T02:51:28.465Z,94373.70
2018-07-17T02:53:57.254Z,94370.24
2018-07-17T02:56:26.122Z,94368.16
2018-07-17T02:58:54.912Z,94370.02
2018-07-17T03:01:23.701Z,94368.98
2018-07-17T03:03:52.529Z,94374.35
2018-07-17T03:06:21.301Z,94383.41
2018-07-17T03:08:50.603Z,94377.28
2018-07-17T03:11:19.389Z,94380.48
2018-07-17T03:13:48.185Z,94380.22
2018-07-17T03:16:16.963Z,94379.18
2018-07-17T03:18:46.209Z,94368.53
2018-07-17T03:21:14.995Z,94367.73
2018-07-17T03:23:43.787Z,94360.83
2018-07-17T03:26:12.582Z,94360.56
2018-07-17T03:28:41.382Z,94373.38
2018-07-17T03:31:10.126Z,94374.97
2018-07-17T03:33:38.933Z,94376.53
2018-07-17T03:36:07.681Z,94372.30
2018-07-17T03:38:36.803Z,94376.83
2018-07-17T03:41:05.773Z,94365.11
2018-07-17T03:43:34.811Z,94375.23
2018-07-17T03:46:03.583Z,94373.09
2018-07-17T03:48:37.640Z,94374.16
2018-07-17T03:51:09.574Z,94365.38
2018-07-17T03:53:39.481Z,94369.37
2018-07-17T03:56:08.362Z,94366.72
2018-07-17T03:58:37.148Z,94362.72
2018-07-17T04:01:06.073Z,94369.62
2018-07-17T04:03:34.854Z,94365.06
2018-07-17T04:06:03.874Z,94370.92
2018-07-17T04:08:32.722Z,94365.86
2018-07-17T04:11:01.603Z,94365.83
2018-07-17T04:13:30.381Z,94371.69
2018-07-17T04:15:59.803Z,94378.08
2018-07-17T04:18:28.562Z,94375.42
2018-07-17T04:20:57.432Z,94381.05
2018-07-17T04:23:26.219Z,94382.94
2018-07-17T04:25:55.081Z,94389.86
2018-07-17T04:28:23.927Z,94383.20
2018-07-17T04:30:52.935Z,94383.47
2018-07-17T04:33:21.921Z,94382.38
2018-07-17T04:35:50.842Z,94373.55
2018-07-17T04:38:19.703Z,94371.42
2018-07-17T04:40:48.816Z,94366.09
2018-07-17T04:43:17.735Z,94364.77
2018-07-17T04:45:46.520Z,94366.33
2018-07-17T04:48:15.385Z,94370.86
2018-07-17T04:50:44.277Z,94374.28
2018-07-17T04:53:13.171Z,94377.39
2018-07-17T04:55:41.967Z,94383.09
2018-07-17T04:58:10.814Z,94381.22
2018-07-17T05:00:39.610Z,94380.83
2018-07-17T05:03:08.826Z,94381.20
2018-07-17T05:05:37.565Z,94381.20
2018-07-17T05:08:06.903Z,94372.30
2018-07-17T05:10:35.667Z,94377.13
2018-07-17T05:13:04.568Z,94371.05
2018-07-17T05:15:33.566Z,94368.14
2018-07-17T05:18:02.352Z,94367.05
2018-07-17T05:20:31.156Z,94361.98
2018-07-17T05:22:59.979Z,94361.72
2018-07-17T05:25:28.991Z,94355.76
2018-07-17T05:27:57.843Z,94357.81
2018-07-17T05:30:26.743Z,94360.19
2018-07-17T05:32:55.522Z,94359.73
2018-07-17T05:35:24.415Z,94356.42
2018-07-17T05:37:53.418Z,94355.84
2018-07-17T05:40:22.194Z,94345.06
2018-07-17T05:42:51.224Z,94353.17
2018-07-17T05:45:20.035Z,94355.02
2018-07-17T05:47:48.791Z,94356.36
2018-07-17T05:50:17.725Z,94348.93
2018-07-17T05:52:46.597Z,94345.50
2018-07-17T05:55:15.406Z,94344.55
2018-07-17T05:57:44.221Z,94334.98
2018-07-17T06:00:13.143Z,94340.43
2018-07-17T06:02:41.942Z,94330.13
2018-07-17T06:05:17.053Z,94329.43
2018-07-17T06:07:45.895Z,94330.24
2018-07-17T06:10:15.760Z,94326.52
2018-07-17T06:12:44.741Z,94325.29
2018-07-17T06:15:13.902Z,94327.50
2018-07-17T06:17:42.827Z,94330.80
2018-07-17T06:20:11.659Z,94328.94
2018-07-17T06:22:40.825Z,94335.29
2018-07-17T06:25:10.591Z,94328.50
2018-07-17T06:27:39.425Z,94330.75
2018-07-17T06:30:09.240Z,94335.33
2018-07-17T06:32:38.178Z,94336.44
2018-07-17T06:35:07.460Z,94339.63
2018-07-17T06:37:42.958Z,94337.42
2018-07-17T06:40:11.735Z,94341.45
2018-07-17T06:42:40.737Z,94353.41
2018-07-17T06:45:09.567Z,94346.44
2018-07-17T06:47:38.343Z,94345.59
2018-07-17T06:50:07.250Z,94338.91
2018-07-17T06:52:36.861Z,94345.66
2018-07-17T06:55:05.726Z,94355.81
2018-07-17T06:57:35.350Z,94357.70
2018-07-17T07:00:05.614Z,94356.45
2018-07-17T07:02:34.460Z,94348.16
2018-07-17T07:05:03.362Z,94354.36
2018-07-17T07:07:32.302Z,94356.22
2018-07-17T07:10:01.346Z,94358.67
2018-07-17T07:12:30.158Z,94365.87
2018-07-17T07:14:58.969Z,94357.64
2018-07-17T10:18:46.254Z,94321.86
2018-07-17T10:21:15.098Z,94323.08
2018-07-17T10:23:43.952Z,94320.59
2018-07-17T10:26:12.771Z,94316.30
2018-07-17T10:28:41.578Z,94311.38
2018-07-17T10:31:10.398Z,94304.05
2018-07-17T10:33:39.252Z,94301.41
2018-07-17T10:36:08.064Z,94298.62
2018-07-17T10:38:36.862Z,94291.84
2018-07-17T10:41:06.706Z,94298.73
2018-07-17T10:43:35.596Z,94295.45
2018-07-17T10:46:06.613Z,94292.42
2018-07-17T10:48:36.380Z,94296.12
2018-07-17T10:51:05.481Z,94300.72
2018-07-17T10:53:44.561Z,94302.73
2018-07-17T10:56:13.356Z,94296.05
2018-07-17T10:58:42.149Z,94298.73
2018-07-17T11:01:10.994Z,94294.03
2018-07-17T11:03:39.826Z,94289.23
2018-07-17T11:06:08.671Z,94291.53
2018-07-17T11:08:37.469Z,94282.48
2018-07-17T11:11:06.888Z,94281.17
2018-07-17T11:13:35.712Z,94276.73
2018-07-17T11:16:04.886Z,94275.97
2018-07-17T11:18:33.691Z,94267.73
2018-07-17T11:21:02.595Z,94260.62
2018-07-17T11:23:31.833Z,94245.78
2018-07-17T11:26:00.678Z,94243.86
2018-07-17T11:28:29.434Z,94244.84
2018-07-17T11:30:58.898Z,94242.02
2018-07-17T11:33:27.713Z,94239.43
2018-07-17T11:35:56.519Z,94233.02
2018-07-17T11:38:25.349Z,94237.20
2018-07-17T11:40:54.629Z,94228.80
2018-07-17T11:43:23.581Z,94227.30
2018-07-17T11:45:52.585Z,94219.64
2018-07-17T11:48:21.390Z,94212.89
2018-07-17T11:50:50.229Z,94207.52
2018-07-17T11:53:19.039Z,94207.67
2018-07-17T11:55:48.083Z,94214.11
2018-07-17T11:58:16.926Z,94216.55
2018-07-17T12:00:45.818Z,94220.27
2018-07-17T12:03:14.634Z,94217.59
2018-07-17T12:05:43.420Z,94221.30
2018-07-17T12:08:12.250Z,94226.28
2018-07-17T12:10:41.083Z,94223.66
2018-07-17T12:13:10.241Z,94229.04
2018-07-17T12:15:39.004Z,94230.56
2018-07-17T12:18:07.806Z,94234.17
2018-07-17T12:20:36.869Z,94235.98
2018-07-17T12:23:05.825Z,94230.83
2018-07-17T12:25:34.637Z,94234.46
2018-07-17T12:28:03.526Z,94239.63
2018-07-17T12:30:32.496Z,94239.09
2018-07-17T12:33:01.790Z,94234.47
2018-07-17T12:35:30.701Z,94232.73
2018-07-17T12:37:59.474Z,94222.44
2018-07-17T12:40:28.282Z,94221.22
2018-07-17T12:42:57.082Z,94219.05
2018-07-17T12:45:25.904Z,94202.23
2018-07-17T12:47:54.706Z,94205.22
2018-07-17T12:50:23.601Z,94211.51
2018-07-17T12:52:52.793Z,94213.22
2018-07-17T12:55:21.596Z,94217.28
2018-07-17T12:57:50.584Z,94220.52
2018-07-17T13:00:19.413Z,94224.50
2018-07-17T13:02:49.133Z,94229.97
2018-07-17T13:05:18.185Z,94219.59
2018-07-17T13:07:47.162Z,94216.54
2018-07-17T13:10:15.970Z,94207.17
2018-07-17T13:12:44.830Z,94207.02
2018-07-17T13:15:13.694Z,94207.41
2018-07-17T13:17:42.933Z,94206.56
2018-07-17T13:20:11.865Z,94199.44
2018-07-17T13:22:42.429Z,94203.28
2018-07-17T13:25:12.010Z,94198.85
2018-07-17T13:27:41.436Z,94198.95
2018-07-17T13:30:11.493Z,94194.70
2018-07-17T13:32:41.329Z,94189.77
2018-07-17T13:35:11.113Z,94179.02
2018-07-17T13:37:40.048Z,94182.66
2018-07-17T13:40:09.608Z,94180.73
2018-07-17T13:42:38.427Z,94185.16
2018-07-17T13:45:12.115Z,94179.98
2018-07-17T13:47:41.603Z,94185.48
2018-07-17T13:50:10.803Z,94179.96
2018-07-17T13:52:40.399Z,94176.17
2018-07-17T13:55:09.946Z,94172.39
2018-07-17T13:57:39.497Z,94162.05
2018-07-17T14:00:08.886Z,94167.63
2018-07-17T14:02:37.714Z,94162.31
2018-07-17T14:05:07.134Z,94164.49
2018-07-17T14:07:36.014Z,94168.02
2018-07-17T14:10:05.048Z,94160.63
2018-07-17T14:12:33.846Z,94160.41
2018-07-17T14:15:02.816Z,94154.71
2018-07-17T14:17:31.770Z,94156.78
2018-07-17T14:20:00.734Z,94156.13
2018-07-17T14:22:29.613Z,94151.42
2018-07-17T14:24:58.397Z,94155.27
2018-07-17T14:27:27.205Z,94159.23
2018-07-17T14:29:56.038Z,94164.19
2018-07-17T14:32:24.883Z,94160.99
2018-07-17T14:34:53.778Z,94163.67
2018-07-17T14:37:23.778Z,94160.93
2018-07-17T14:39:52.590Z,94163.92
2018-07-17T14:42:21.428Z,94159.28
2018-07-17T14:44:50.268Z,94171.90
2018-07-17T14:47:19.978Z,94169.80
2018-07-17T14:49:48.834Z,94164.48
2018-07-17T14:52:17.917Z,94172.33
2018-07-17T14:54:46.780Z,94166.89
2018-07-17T14:57:15.686Z,94162.53
2018-07-17T14:59:44.654Z,94168.45
2018-07-17T15:02:13.844Z,94164.27
2018-07-17T15:04:42.646Z,94161.90
2018-07-17T15:07:11.478Z,94155.00
2018-07-17T15:09:40.340Z,94161.19
2018-07-17T15:12:09.281Z,94154.39
2018-07-17T15:14:38.015Z,94153.68
2018-07-17T15:17:06.929Z,94154.39
2018-07-17T15:19:36.387Z,94148.83
2018-07-17T15:22:05.229Z,94146.57
2018-07-17T15:24:34.011Z,94142.05
2018-07-17T15:27:02.773Z,94149.99
2018-07-17T15:29:31.719Z,94144.44
2018-07-17T15:32:00.664Z,94147.44
2018-07-17T15:34:29.581Z,94148.09
2018-07-17T15:36:58.496Z,94142.84
2018-07-17T15:39:27.359Z,94155.16
2018-07-17T15:41:56.155Z,94154.45
2018-07-17T15:44:25.035Z,94150.48
2018-07-17T15:46:54.416Z,94155.86
2018-07-17T15:49:23.325Z,94157.64
2018-07-17T15:51:52.259Z,94155.63
2018-07-17T15:54:21.158Z,94154.35
2018-07-17T15:56:50.342Z,94157.77
2018-07-17T15:59:19.134Z,94165.19
2018-07-17T16:01:48.337Z,94168.06
2018-07-17T16:04:17.170Z,94165.38
2018-07-17T16:06:46.064Z,94165.93
2018-07-17T16:09:14.944Z,94162.93
2018-07-17T16:11:44.137Z,94168.68
2018-07-17T16:14:13.419Z,94167.30
2018-07-17T16:16:42.002Z,94168.70
2018-07-17T16:19:11.773Z,94171.36
2018-07-17T16:21:41.808Z,94185.45
2018-07-17T16:24:10.673Z,94193.57
2018-07-17T16:26:40.408Z,94186.56
2018-07-17T16:29:09.354Z,94188.56
2018-07-17T16:31:38.226Z,94186.83
2018-07-17T16:34:08.042Z,94187.63
2018-07-17T16:36:36.953Z,94187.01
2018-07-17T16:39:08.029Z,94195.98
2018-07-17T16:41:36.816Z,94187.55
2018-07-17T16:44:05.617Z,94187.08
2018-07-17T16:46:34.427Z,94193.08
2018-07-17T16:49:03.280Z,94199.34
2018-07-17T16:51:32.118Z,94199.41
2018-07-17T16:54:00.981Z,94198.13
2018-07-17T16:56:30.014Z,94208.36
2018-07-17T16:58:58.892Z,94193.63
2018-07-17T17:01:27.680Z,94209.23
2018-07-17T17:03:56.468Z,94214.58
2018-07-17T17:06:25.364Z,94211.77
2018-07-17T17:08:54.234Z,94207.56
2018-07-17T17:11:23.168Z,94205.91
2018-07-17T17:13:51.996Z,94206.00
2018-07-17T17:16:20.806Z,94206.92
2018-07-17T17:18:49.649Z,94209.08
2018-07-17T17:21:18.663Z,94215.37
2018-07-17T17:23:47.497Z,94211.64
2018-07-17T17:26:16.440Z,94219.97
2018-07-17T17:28:45.276Z,94232.80
2018-07-17T17:31:14.176Z,94230.69
2018-07-17T17:33:42.994Z,94222.19
2018-07-17T17:36:11.905Z,94218.69
2018-07-17T17:38:40.824Z,94222.30
2018-07-17T17:41:09.596Z,94230.59
2018-07-17T17:43:38.373Z,94234.66
2018-07-17T17:46:07.181Z,94233.09
2018-07-17T17:48:36.021Z,94238.44
2018-07-17T17:51:04.855Z,94233.39
2018-07-17T17:53:33.708Z,94230.98
2018-07-17T17:56:02.520Z,94234.17
2018-07-17T17:58:31.331Z,94234.50
2018-07-17T18:01:00.330Z,94240.64
2018-07-17T18:03:29.189Z,94239.53
2018-07-17T18:05:58.037Z,94242.55
2018-07-17T18:08:26.806Z,94245.27
2018-07-17T18:10:55.664Z,94234.91
2018-07-17T18:13:24.454Z,94246.93
2018-07-17T18:15:53.409Z,94249.08
2018-07-17T18:18:22.212Z,94255.04
2018-07-17T18:20:51.011Z,94258.78
2018-07-17T18:23:19.955Z,94257.75
2018-07-17T18:25:48.814Z,94269.34
2018-07-17T18:28:17.706Z,94276.34
2018-07-17T18:30:56.658Z,94275.03
2018-07-17T18:33:25.608Z,94275.89
2018-07-17T18:35:54.411Z,94277.85
2018-07-17T18:38:23.284Z,94277.87
2018-07-17T18:40:52.077Z,94289.88
2018-07-17T18:43:20.901Z,94291.01
2018-07-17T18:45:49.707Z,94289.70
2018-07-17T18:48:18.548Z,94295.62
2018-07-17T18:50:47.595Z,94292.70
2018-07-17T18:53:16.415Z,94305.05
2018-07-17T18:55:45.220Z,94308.05
2018-07-17T18:58:14.075Z,94300.06
2018-07-17T19:00:43.539Z,94300.34
2018-07-17T19:03:12.846Z,94304.08
2018-07-17T19:05:42.075Z,94305.73
2018-07-17T19:08:11.314Z,94309.20
2018-07-17T19:10:40.098Z,94312.66
2018-07-17T19:13:08.882Z,94308.94
2018-07-17T19:15:38.002Z,94318.02
2018-07-17T19:18:06.779Z,94306.27
2018-07-17T19:20:35.721Z,94313.19
2018-07-17T19:23:04.576Z,94311.33
2018-07-17T19:25:35.032Z,94312.41
2018-07-17T19:28:03.864Z,94311.61
2018-07-17T19:30:32.722Z,94304.73
2018-07-17T19:33:01.517Z,94310.33
2018-07-17T19:35:34.176Z,94305.22
2018-07-17T19:38:03.392Z,94306.61
2018-07-17T19:40:32.248Z,94305.55
2018-07-17T19:43:01.227Z,94301.34
2018-07-17T19:45:31.422Z,94308.25
2018-07-17T19:48:00.324Z,94312.80
2018-07-17T19:50:29.188Z,94309.81
2018-07-17T19:52:58.058Z,94310.88
2018-07-17T19:55:27.055Z,94314.59
2018-07-17T19:57:55.946Z,94313.75
2018-07-17T20:00:24.922Z,94310.81
2018-07-17T20:02:53.771Z,94302.80
2018-07-17T20:05:22.574Z,94314.54
2018-07-17T20:07:51.360Z,94304.16
2018-07-17T20:10:20.285Z,94302.88
2018-07-17T20:12:49.089Z,94309.55
2018-07-17T20:15:18.169Z,94303.72
2018-07-17T20:17:47.440Z,94312.04
2018-07-17T20:20:16.268Z,94307.78
2018-07-17T20:22:45.229Z,94310.23
2018-07-17T20:25:14.113Z,94312.61
2018-07-17T20:27:42.974Z,94305.38
2018-07-17T20:30:11.840Z,94311.28
2018-07-17T20:32:40.687Z,94316.35
2018-07-17T20:35:09.528Z,94308.63
2018-07-17T20:37:38.417Z,94305.97
2018-07-17T20:40:07.275Z,94305.97
2018-07-17T20:42:36.075Z,94318.27
2018-07-17T20:45:05.020Z,94320.61
2018-07-17T20:47:33.879Z,94316.62
2018-07-17T20:50:02.706Z,94314.22
2018-07-17T20:52:31.596Z,94322.27
2018-07-17T20:55:00.484Z,94324.13
2018-07-17T20:57:29.729Z,94316.67
2018-07-17T20:59:58.619Z,94312.67
2018-07-17T21:02:27.477Z,94310.02
2018-07-17T21:04:56.333Z,94307.66
2018-07-17T21:07:25.331Z,94312.46
2018-07-17T21:09:54.136Z,94310.06
2018-07-17T21:12:22.988Z,94317.00
2018-07-17T21:14:51.842Z,94320.46
2018-07-17T21:17:20.777Z,94326.36
2018-07-17T21:19:49.776Z,94330.36
2018-07-17T21:22:18.578Z,94323.44
2018-07-17T21:24:47.542Z,94319.48
2018-07-17T21:27:16.377Z,94313.89
2018-07-17T21:29:45.199Z,94307.50
2018-07-17T21:32:14.029Z,94310.16
2018-07-17T21:34:42.869Z,94313.93
2018-07-17T21:37:12.680Z,94316.89
2018-07-17T21:39:41.701Z,94322.22
2018-07-17T21:42:10.593Z,94320.89
2018-07-17T21:44:39.449Z,94319.55
2018-07-17T21:47:08.276Z,94329.67
2018-07-17T21:49:37.236Z,94335.00
2018-07-17T21:52:06.229Z,94334.47
2018-07-17T21:54:35.093Z,94332.87
2018-07-17T21:57:03.923Z,94333.67
2018-07-17T21:59:32.784Z,94345.92
2018-07-17T22:02:01.671Z,94345.66
2018-07-17T22:04:30.457Z,94345.68
2018-07-17T22:06:59.503Z,94342.22
2018-07-17T22:09:28.312Z,94338.78
2018-07-17T22:11:57.201Z,94343.86
2018-07-17T22:14:26.026Z,94342.23
2018-07-17T22:16:54.838Z,94340.67
2018-07-17T22:19:24.396Z,94349.16
2018-07-17T22:21:53.264Z,94346.25
2018-07-17T22:24:22.115Z,94353.19
2018-07-17T22:26:50.952Z,94350.28
2018-07-17T22:29:19.772Z,94352.41
2018-07-17T22:31:48.635Z,94350.02
2018-07-17T22:34:17.429Z,94351.86
2018-07-17T22:36:46.242Z,94352.41
2018-07-17T22:39:15.220Z,94357.46
2018-07-17T22:41:44.032Z,94358.24
2018-07-17T22:44:12.839Z,94355.34
2018-07-17T22:46:41.712Z,94353.20
2018-07-17T22:49:11.567Z,94355.59
2018-07-17T22:51:40.776Z,94355.85
2018-07-17T22:54:09.660Z,94357.20
2018-07-17T22:56:38.507Z,94356.13
2018-07-17T22:59:07.383Z,94367.56
2018-07-17T23:01:36.208Z,94366.24
2018-07-17T23:04:05.095Z,94364.38
2018-07-17T23:06:33.876Z,94360.66
2018-07-17T23:09:02.827Z,94363.84
2018-07-17T23:11:31.633Z,94366.50
2018-07-17T23:14:00.448Z,94365.17
2018-07-17T23:16:29.270Z,94366.23
2018-07-17T23:18:58.067Z,94367.82
2018-07-17T23:21:26.928Z,94362.25
2018-07-17T23:23:55.758Z,94370.50
2018-07-17T23:26:24.617Z,94365.73
2018-07-17T23:28:53.432Z,94355.59
2018-07-17T23:31:22.249Z,94362.26
2018-07-17T23:33:51.112Z,94358.53
2018-07-17T23:36:19.940Z,94361.70
2018-07-17T23:38:48.761Z,94365.18
2018-07-17T23:41:17.613Z,94362.25
2018-07-17T23:43:46.480Z,94367.31
2018-07-17T23:46:15.342Z,94361.98
2018-07-17T23:48:44.170Z,94367.78
2018-07-17T23:51:12.966Z,94367.83
2018-07-17T23:53:41.775Z,94370.73
2018-07-17T23:56:10.938Z,94366.77
2018-07-17T23:58:39.861Z,94366.51
